Time;durP1;ratioP1;P1;durP2;ratioP2;P2;SDS_P1;SDS_P2;PMS_P1;PMS_P2;Temp;Humidity;BMP_temperature;BMP_pressure;BME280_temperature;BME280_humidity;BME280_pressure;Samples;Min_cycle;Max_cycle;Signal;HPM_P1;HPM_P2
2022/02/05 00:00:29;;;;;;;0.47;0.40;;;;;;;;;;5068364;28;20036;-49
2022/02/05 00:06:01;;;;;;;0.50;0.40;;;;;;;;;;5058152;28;20029;-49
2022/02/05 00:08:46;;;;;;;1.67;0.80;;;;;;;;;;5057003;28;20028;-49
2022/02/05 00:11:54;;;;;;;1.00;0.70;;;;;;;;;;5069209;28;20121;-49
2022/02/05 00:14:38;;;;;;;0.90;0.77;;;;;;;;;;5068348;28;20028;-52
2022/02/05 00:20:26;;;;;;;3.38;0.90;;;;;;;;;;5061638;28;20063;-49
2022/02/05 00:44:40;;;;;;;3.90;1.23;;;;;;;;;;5018778;28;20041;-46
2022/02/05 00:47:06;;;;;;;3.47;1.40;;;;;;;;;;5027600;28;20033;-51
2022/02/05 00:49:33;;;;;;;4.72;1.45;;;;;;;;;;5039790;28;20044;-47
2022/02/05 00:52:07;;;;;;;2.03;1.40;;;;;;;;;;5071028;28;20868;-52
2022/02/05 00:54:33;;;;;;;3.10;1.90;;;;;;;;;;5070784;28;20036;-48
2022/02/05 00:59:31;;;;;;;5.10;1.50;;;;;;;;;;5067589;28;20055;-48
2022/02/05 01:01:57;;;;;;;4.43;2.00;;;;;;;;;;5064021;28;20060;-49
2022/02/05 01:04:23;;;;;;;6.95;2.05;;;;;;;;;;5068857;28;20525;-47
2022/02/05 01:06:49;;;;;;;3.10;1.75;;;;;;;;;;5071982;28;20043;-50
2022/02/05 01:09:21;;;;;;;4.47;1.83;;;;;;;;;;5065831;28;20036;-46
2022/02/05 01:11:47;;;;;;;5.45;1.95;;;;;;;;;;5070450;28;20048;-48
2022/02/05 01:14:17;;;;;;;4.18;1.52;;;;;;;;;;5070929;28;20035;-49
2022/02/05 01:16:58;;;;;;;5.30;1.58;;;;;;;;;;5060639;28;20039;-50
2022/02/05 01:22:11;;;;;;;4.35;1.83;;;;;;;;;;5066160;28;20086;-47
2022/02/05 01:24:38;;;;;;;4.65;1.58;;;;;;;;;;5071988;28;20643;-52
2022/02/05 01:27:10;;;;;;;5.55;2.08;;;;;;;;;;5071882;28;20024;-51
2022/02/05 01:32:06;;;;;;;7.05;1.85;;;;;;;;;;5063821;28;20037;-48
2022/02/05 01:34:47;;;;;;;2.95;1.65;;;;;;;;;;5065396;28;20029;-52
2022/02/05 01:50:55;;;;;;;7.30;1.75;;;;;;;;;;5071492;28;20086;-46
2022/02/05 01:53:32;;;;;;;8.20;1.80;;;;;;;;;;5057063;28;20051;-50
2022/02/05 01:56:27;;;;;;;4.68;1.95;;;;;;;;;;5057794;28;20032;-52
2022/02/05 02:04:49;;;;;;;3.40;1.80;;;;;;;;;;5062664;28;20091;-45
2022/02/05 02:07:23;;;;;;;6.70;1.63;;;;;;;;;;5052960;28;20124;-46
2022/02/05 02:12:40;;;;;;;4.00;1.60;;;;;;;;;;5075810;28;20030;-47
2022/02/05 02:15:16;;;;;;;15.13;2.63;;;;;;;;;;5071451;28;20024;-45
2022/02/05 02:18:11;;;;;;;2.92;1.50;;;;;;;;;;5068095;28;20029;-45
2022/02/05 02:20:50;;;;;;;3.63;2.10;;;;;;;;;;5055803;28;20481;-45
2022/02/05 02:23:53;;;;;;;6.93;1.40;;;;;;;;;;5067365;28;20039;-47
2022/02/05 02:29:00;;;;;;;5.63;1.50;;;;;;;;;;5072730;28;20094;-48
2022/02/05 02:31:31;;;;;;;6.82;1.42;;;;;;;;;;5062366;28;20028;-45
2022/02/05 02:34:01;;;;;;;6.75;1.92;;;;;;;;;;5073001;28;20090;-49
2022/02/05 02:39:02;;;;;;;4.50;1.90;;;;;;;;;;5074549;28;20111;-45
2022/02/05 02:41:35;;;;;;;2.83;1.30;;;;;;;;;;5069138;28;20044;-46
2022/02/05 02:44:01;;;;;;;9.05;1.95;;;;;;;;;;5067808;28;20524;-45
2022/02/05 02:46:27;;;;;;;7.05;1.77;;;;;;;;;;5065761;28;20568;-44
2022/02/05 02:48:54;;;;;;;5.15;1.67;;;;;;;;;;5060865;28;20427;-47
2022/02/05 02:56:57;;;;;;;2.60;1.20;;;;;;;;;;5063248;28;20147;-45
2022/02/05 02:59:29;;;;;;;4.82;1.75;;;;;;;;;;5063081;28;20488;-46
2022/02/05 03:02:07;;;;;;;4.10;1.90;;;;;;;;;;5071480;28;20046;-46
2022/02/05 03:04:33;;;;;;;3.10;1.60;;;;;;;;;;5081272;28;20036;-49
2022/02/05 03:06:59;;;;;;;9.05;1.90;;;;;;;;;;5074100;28;20086;-45
2022/02/05 03:09:25;;;;;;;6.22;1.83;;;;;;;;;;5071617;28;20028;-46
2022/02/05 03:11:51;;;;;;;5.63;1.67;;;;;;;;;;5059963;28;20032;-46
2022/02/05 03:14:17;;;;;;;9.82;2.22;;;;;;;;;;5073934;28;20024;-47
2022/02/05 03:16:49;;;;;;;4.25;1.90;;;;;;;;;;5073070;28;20029;-45
2022/02/05 03:19:15;;;;;;;5.80;1.83;;;;;;;;;;5074148;28;20512;-45
2022/02/05 03:21:42;;;;;;;2.70;1.52;;;;;;;;;;5059483;28;20036;-45
2022/02/05 03:24:08;;;;;;;9.15;1.70;;;;;;;;;;5073770;28;20115;-45
2022/02/05 03:26:35;;;;;;;5.03;1.80;;;;;;;;;;5073166;28;20077;-45
2022/02/05 03:29:04;;;;;;;9.80;2.13;;;;;;;;;;5068990;28;20043;-47
2022/02/05 03:31:30;;;;;;;5.55;1.75;;;;;;;;;;5073059;28;20024;-47
2022/02/05 03:33:56;;;;;;;8.15;2.53;;;;;;;;;;5072884;28;20465;-48
2022/02/05 03:36:22;;;;;;;6.32;2.00;;;;;;;;;;5066806;28;20032;-45
2022/02/05 03:38:48;;;;;;;6.47;2.28;;;;;;;;;;5077830;28;20024;-45
2022/02/05 03:41:14;;;;;;;5.93;1.73;;;;;;;;;;5073184;28;20032;-47
2022/02/05 03:43:40;;;;;;;4.38;2.08;;;;;;;;;;5068927;28;20111;-45
2022/02/05 03:46:06;;;;;;;3.67;2.20;;;;;;;;;;5065962;28;20086;-47
2022/02/05 03:48:33;;;;;;;6.45;2.10;;;;;;;;;;5059015;28;20044;-50
2022/02/05 03:50:59;;;;;;;6.35;2.70;;;;;;;;;;5071008;28;20108;-45
2022/02/05 03:53:25;;;;;;;7.65;2.95;;;;;;;;;;5063591;28;20564;-44
2022/02/05 03:55:51;;;;;;;5.78;2.17;;;;;;;;;;5058477;28;20112;-46
2022/02/05 03:58:17;;;;;;;10.23;2.88;;;;;;;;;;5064320;28;20470;-46
2022/02/05 04:00:43;;;;;;;7.85;2.50;;;;;;;;;;5062788;28;20046;-48
2022/02/05 04:03:10;;;;;;;4.75;2.30;;;;;;;;;;5072165;28;20047;-48
2022/02/05 04:05:36;;;;;;;7.75;2.65;;;;;;;;;;5064934;28;20029;-48
2022/02/05 04:08:06;;;;;;;9.52;2.63;;;;;;;;;;5060635;28;20033;-46
2022/02/05 04:10:41;;;;;;;14.63;2.42;;;;;;;;;;5064219;28;20047;-46
2022/02/05 04:16:21;;;;;;;7.57;2.55;;;;;;;;;;5063652;28;20381;-44
2022/02/05 04:18:47;;;;;;;4.85;2.20;;;;;;;;;;5056928;28;20090;-47
2022/02/05 04:21:13;;;;;;;6.25;2.17;;;;;;;;;;5055748;28;20548;-45
2022/02/05 04:23:40;;;;;;;9.40;2.30;;;;;;;;;;5063440;28;20365;-46
2022/02/05 04:26:06;;;;;;;6.93;2.55;;;;;;;;;;5063855;28;20033;-46
2022/02/05 04:28:32;;;;;;;8.80;2.45;;;;;;;;;;5070880;28;20051;-49
2022/02/05 04:30:58;;;;;;;6.05;2.30;;;;;;;;;;5064602;28;20369;-46
2022/02/05 04:33:24;;;;;;;4.38;1.83;;;;;;;;;;5078353;28;20024;-45
2022/02/05 04:35:50;;;;;;;9.80;2.70;;;;;;;;;;5063122;28;20032;-45
2022/02/05 04:38:17;;;;;;;11.18;3.72;;;;;;;;;;5071947;28;20109;-50
2022/02/05 04:41:35;;;;;;;7.90;2.38;;;;;;;;;;5067319;28;20111;-46
2022/02/05 04:46:30;;;;;;;6.13;2.30;;;;;;;;;;5067973;28;20029;-48
2022/02/05 04:49:24;;;;;;;9.80;3.88;;;;;;;;;;5070364;28;20036;-45
2022/02/05 04:54:39;;;;;;;11.50;2.53;;;;;;;;;;5063949;28;20055;-45
2022/02/05 04:57:26;;;;;;;7.43;2.38;;;;;;;;;;5065614;28;20047;-44
2022/02/05 05:00:14;;;;;;;9.45;2.60;;;;;;;;;;5062474;28;20154;-49
2022/02/05 05:05:24;;;;;;;3.75;2.05;;;;;;;;;;5069085;28;20028;-46
2022/02/05 05:08:09;;;;;;;8.55;2.40;;;;;;;;;;5060680;28;20028;-45
2022/02/05 05:13:35;;;;;;;6.60;1.98;;;;;;;;;;5068107;28;20163;-47
2022/02/05 05:21:12;;;;;;;13.07;2.47;;;;;;;;;;5062474;28;20039;-50
2022/02/05 05:23:38;;;;;;;4.93;1.80;;;;;;;;;;5057795;28;20032;-44
2022/02/05 05:26:04;;;;;;;7.32;2.00;;;;;;;;;;5071002;28;20023;-45
2022/02/05 05:28:31;;;;;;;7.10;1.60;;;;;;;;;;5070074;28;20104;-48
2022/02/05 05:30:56;;;;;;;8.27;2.75;;;;;;;;;;5066137;28;20025;-48
2022/02/05 05:33:23;;;;;;;8.52;2.33;;;;;;;;;;5064167;28;20542;-46
2022/02/05 05:35:48;;;;;;;2.42;1.92;;;;;;;;;;5061702;28;20017;-48
2022/02/05 05:38:14;;;;;;;4.15;2.03;;;;;;;;;;5075509;28;20394;-46
2022/02/05 05:40:42;;;;;;;8.60;1.80;;;;;;;;;;5066061;28;20071;-46
2022/02/05 05:43:19;;;;;;;5.10;2.33;;;;;;;;;;5061552;28;20040;-48
2022/02/05 05:48:55;;;;;;;4.78;2.20;;;;;;;;;;5063289;28;20039;-48
2022/02/05 05:51:21;;;;;;;6.72;2.72;;;;;;;;;;5063593;28;20513;-44
2022/02/05 05:53:47;;;;;;;7.22;2.70;;;;;;;;;;5057672;28;20032;-45
2022/02/05 05:56:13;;;;;;;7.60;3.00;;;;;;;;;;5073316;28;20582;-47
2022/02/05 05:58:39;;;;;;;5.22;2.78;;;;;;;;;;5071646;28;20033;-45
2022/02/05 06:01:05;;;;;;;5.38;3.08;;;;;;;;;;5066736;28;20025;-46
2022/02/05 06:03:32;;;;;;;7.68;3.00;;;;;;;;;;5065134;28;20051;-46
2022/02/05 06:05:58;;;;;;;5.93;2.60;;;;;;;;;;5068254;28;20027;-45
2022/02/05 06:08:24;;;;;;;8.93;2.83;;;;;;;;;;5074944;28;20020;-49
2022/02/05 06:10:51;;;;;;;8.70;3.00;;;;;;;;;;5073984;28;20067;-46
2022/02/05 06:13:16;;;;;;;7.72;2.63;;;;;;;;;;5069286;28;20465;-45
2022/02/05 06:15:44;;;;;;;6.13;3.08;;;;;;;;;;5074562;28;20040;-45
2022/02/05 06:18:10;;;;;;;6.00;2.90;;;;;;;;;;5075093;28;20352;-45
2022/02/05 06:20:37;;;;;;;13.05;2.58;;;;;;;;;;5071874;28;20028;-48
2022/02/05 06:23:03;;;;;;;9.70;2.83;;;;;;;;;;5073655;28;20031;-45
2022/02/05 06:25:31;;;;;;;6.07;2.80;;;;;;;;;;5071011;28;20115;-48
2022/02/05 06:27:57;;;;;;;6.47;2.47;;;;;;;;;;5074866;28;20093;-45
2022/02/05 06:30:23;;;;;;;4.95;2.42;;;;;;;;;;5067089;28;20033;-48
2022/02/05 06:32:49;;;;;;;9.18;2.83;;;;;;;;;;5063622;28;20047;-45
2022/02/05 06:35:16;;;;;;;6.55;2.60;;;;;;;;;;5073764;28;20104;-45
2022/02/05 06:37:42;;;;;;;5.47;2.70;;;;;;;;;;5074219;28;20029;-45
2022/02/05 06:40:09;;;;;;;4.70;2.47;;;;;;;;;;5065345;28;20127;-45
2022/02/05 06:42:35;;;;;;;10.00;2.90;;;;;;;;;;5073843;28;20385;-45
2022/02/05 06:45:02;;;;;;;6.35;2.53;;;;;;;;;;5069537;28;20059;-48
2022/02/05 06:47:28;;;;;;;8.25;3.55;;;;;;;;;;5072605;28;20033;-45
2022/02/05 06:49:53;;;;;;;11.80;3.33;;;;;;;;;;5069833;28;20086;-46
2022/02/05 06:52:19;;;;;;;12.13;3.28;;;;;;;;;;5069705;28;20040;-47
2022/02/05 06:54:45;;;;;;;9.65;4.10;;;;;;;;;;5070826;28;20122;-51
2022/02/05 06:57:11;;;;;;;6.43;2.88;;;;;;;;;;5069728;28;20029;-47
2022/02/05 06:59:37;;;;;;;6.97;3.33;;;;;;;;;;5068353;28;20064;-48
2022/02/05 07:02:03;;;;;;;7.10;3.35;;;;;;;;;;5069424;28;20739;-46
2022/02/05 07:04:29;;;;;;;6.00;2.90;;;;;;;;;;5064584;28;20475;-45
2022/02/05 07:06:57;;;;;;;4.75;2.13;;;;;;;;;;5064546;28;20020;-46
2022/02/05 07:09:26;;;;;;;3.00;1.48;;;;;;;;;;5070913;28;20028;-45
2022/02/05 07:11:53;;;;;;;2.17;1.30;;;;;;;;;;5065093;28;20042;-46
2022/02/05 07:14:23;;;;;;;2.35;1.25;;;;;;;;;;5065560;28;20912;-49
2022/02/05 07:17:00;;;;;;;4.90;1.40;;;;;;;;;;5069687;28;20024;-46
2022/02/05 07:19:44;;;;;;;2.55;1.50;;;;;;;;;;5064884;28;20035;-46
2022/02/05 07:22:10;;;;;;;4.28;1.38;;;;;;;;;;5066875;28;20037;-47
2022/02/05 07:29:12;;;;;;;1.88;1.15;;;;;;;;;;5063430;28;20099;-47
2022/02/05 07:30:22;;;;;;;5.95;1.65;;;;;;;;;;5059443;28;20123;-45
2022/02/05 07:32:48;;;;;;;2.58;1.45;;;;;;;;;;5072579;28;20024;-48
2022/02/05 07:35:14;;;;;;;5.20;1.67;;;;;;;;;;5068951;28;20028;-46
2022/02/05 07:37:40;;;;;;;3.83;1.45;;;;;;;;;;5081036;28;20020;-45
2022/02/05 07:40:07;;;;;;;3.53;1.98;;;;;;;;;;5067830;28;20100;-47
2022/02/05 07:42:32;;;;;;;3.28;1.88;;;;;;;;;;5070687;28;20063;-48
2022/02/05 07:44:58;;;;;;;5.65;1.92;;;;;;;;;;5065571;28;20037;-48
2022/02/05 07:47:27;;;;;;;2.72;1.52;;;;;;;;;;5068696;28;20039;-48
2022/02/05 07:49:53;;;;;;;4.57;2.10;;;;;;;;;;5061385;28;20040;-45
2022/02/05 07:52:19;;;;;;;2.75;1.63;;;;;;;;;;5067218;28;20049;-45
2022/02/05 07:54:45;;;;;;;2.33;1.33;;;;;;;;;;5064161;28;20029;-46
2022/02/05 07:57:11;;;;;;;4.45;1.60;;;;;;;;;;5072274;28;20028;-47
2022/02/05 07:59:38;;;;;;;2.85;1.60;;;;;;;;;;5072962;28;20374;-47
2022/02/05 08:02:04;;;;;;;4.18;1.55;;;;;;;;;;5062592;28;20020;-47
2022/02/05 08:04:30;;;;;;;3.03;1.63;;;;;;;;;;5067813;28;20025;-46
2022/02/05 08:06:57;;;;;;;3.63;1.52;;;;;;;;;;5068567;28;20025;-47
2022/02/05 08:09:29;;;;;;;4.13;1.30;;;;;;;;;;5065695;28;20028;-47
2022/02/05 08:12:06;;;;;;;8.13;1.80;;;;;;;;;;5076191;28;20020;-50
2022/02/05 08:14:35;;;;;;;5.80;1.88;;;;;;;;;;5065427;28;20083;-46
2022/02/05 08:17:06;;;;;;;5.15;1.50;;;;;;;;;;5064316;28;20532;-46
2022/02/05 08:19:32;;;;;;;5.78;2.03;;;;;;;;;;5070048;28;20495;-50
2022/02/05 08:21:58;;;;;;;9.65;1.58;;;;;;;;;;5059058;28;20032;-48
2022/02/05 08:24:24;;;;;;;7.72;1.95;;;;;;;;;;5061254;28;20369;-48
2022/02/05 08:26:50;;;;;;;3.30;1.40;;;;;;;;;;5072655;28;20074;-49
2022/02/05 08:29:18;;;;;;;4.45;1.23;;;;;;;;;;5060320;28;20108;-47
2022/02/05 08:31:44;;;;;;;5.40;1.33;;;;;;;;;;5072292;28;20021;-48
2022/02/05 08:34:10;;;;;;;3.05;0.98;;;;;;;;;;5072755;28;20101;-46
2022/02/05 08:36:46;;;;;;;3.40;1.00;;;;;;;;;;5072326;28;20032;-45
2022/02/05 08:39:13;;;;;;;3.67;1.08;;;;;;;;;;5072085;28;20036;-46
2022/02/05 08:41:39;;;;;;;6.47;1.52;;;;;;;;;;5071340;28;20086;-47
2022/02/05 08:44:05;;;;;;;4.35;1.10;;;;;;;;;;5081579;28;20025;-47
2022/02/05 08:46:31;;;;;;;4.22;1.00;;;;;;;;;;5070822;28;20039;-50
2022/02/05 08:48:57;;;;;;;1.30;1.13;;;;;;;;;;5071737;28;20032;-46
2022/02/05 08:51:24;;;;;;;2.13;0.98;;;;;;;;;;5070780;28;20059;-47
2022/02/05 08:53:50;;;;;;;5.63;1.23;;;;;;;;;;5072571;28;20082;-45
2022/02/05 08:56:16;;;;;;;1.67;1.02;;;;;;;;;;5072330;28;20020;-46
2022/02/05 08:58:42;;;;;;;6.38;2.13;;;;;;;;;;5072063;28;20032;-47
2022/02/05 09:01:21;;;;;;;8.13;2.20;;;;;;;;;;5069683;28;20515;-47
2022/02/05 09:06:27;;;;;;;2.85;1.30;;;;;;;;;;5072274;28;20059;-47
2022/02/05 09:09:01;;;;;;;6.68;1.35;;;;;;;;;;5071142;28;20381;-51
2022/02/05 09:11:36;;;;;;;4.53;1.13;;;;;;;;;;5070728;28;20056;-46
2022/02/05 09:14:15;;;;;;;5.35;1.65;;;;;;;;;;5071796;28;20471;-47
2022/02/05 09:16:42;;;;;;;3.22;1.60;;;;;;;;;;5075913;28;20020;-47
2022/02/05 09:19:09;;;;;;;3.65;1.35;;;;;;;;;;5075669;28;20032;-49
2022/02/05 09:21:35;;;;;;;3.25;1.10;;;;;;;;;;5071008;28;20029;-48
2022/02/05 09:24:03;;;;;;;4.85;1.20;;;;;;;;;;5070788;28;20093;-48
2022/02/05 09:26:31;;;;;;;4.00;1.27;;;;;;;;;;5068600;28;20028;-49
2022/02/05 09:29:10;;;;;;;2.92;1.10;;;;;;;;;;5071711;28;20028;-50
2022/02/05 09:31:36;;;;;;;3.42;1.55;;;;;;;;;;5071586;28;20376;-46
2022/02/05 09:34:05;;;;;;;2.22;1.25;;;;;;;;;;5075826;28;20017;-47
2022/02/05 09:36:31;;;;;;;3.53;1.73;;;;;;;;;;5075985;28;20021;-47
2022/02/05 09:38:57;;;;;;;7.10;1.50;;;;;;;;;;5075270;28;20103;-47
2022/02/05 09:41:23;;;;;;;3.78;1.10;;;;;;;;;;5075306;28;20067;-47
2022/02/05 09:43:50;;;;;;;6.38;1.95;;;;;;;;;;5085317;28;20372;-47
2022/02/05 09:46:18;;;;;;;7.13;1.42;;;;;;;;;;5075752;28;20016;-47
2022/02/05 09:48:45;;;;;;;3.60;1.42;;;;;;;;;;5062584;28;20029;-47
2022/02/05 09:51:23;;;;;;;6.18;1.30;;;;;;;;;;5073734;28;20035;-47
2022/02/05 09:53:51;;;;;;;1.83;1.35;;;;;;;;;;5075517;28;20025;-47
2022/02/05 09:56:17;;;;;;;4.25;0.93;;;;;;;;;;5074931;28;20052;-46
2022/02/05 09:58:44;;;;;;;2.17;1.08;;;;;;;;;;5074178;28;20025;-47
2022/02/05 10:01:16;;;;;;;3.58;1.02;;;;;;;;;;5074402;28;20079;-47
2022/02/05 10:03:44;;;;;;;2.22;1.05;;;;;;;;;;5075097;28;20380;-47
2022/02/05 10:06:12;;;;;;;2.88;1.13;;;;;;;;;;5075183;28;20457;-48
2022/02/05 10:08:39;;;;;;;4.43;1.65;;;;;;;;;;5075453;28;20028;-47
2022/02/05 10:11:05;;;;;;;6.82;1.35;;;;;;;;;;5074224;28;20066;-47
2022/02/05 10:13:32;;;;;;;1.92;1.17;;;;;;;;;;5073187;28;20115;-49
2022/02/05 10:15:58;;;;;;;4.68;1.15;;;;;;;;;;5076239;28;20028;-49
2022/02/05 10:18:28;;;;;;;3.92;1.15;;;;;;;;;;5074943;28;20025;-47
2022/02/05 10:20:56;;;;;;;3.88;1.20;;;;;;;;;;5074102;28;20029;-47
2022/02/05 10:23:22;;;;;;;6.43;1.70;;;;;;;;;;5075329;28;20020;-47
2022/02/05 10:25:53;;;;;;;3.35;1.00;;;;;;;;;;5075107;28;20028;-46
2022/02/05 10:28:19;;;;;;;2.20;1.05;;;;;;;;;;5081695;28;20031;-50
2022/02/05 10:30:48;;;;;;;3.90;1.40;;;;;;;;;;5064253;28;20380;-50
2022/02/05 10:33:29;;;;;;;5.20;1.50;;;;;;;;;;5060623;28;20043;-46
2022/02/05 10:36:09;;;;;;;7.22;1.38;;;;;;;;;;5062221;28;20348;-48
2022/02/05 10:43:58;;;;;;;6.50;1.23;;;;;;;;;;5083590;28;20491;-47
2022/02/05 10:46:34;;;;;;;6.20;1.73;;;;;;;;;;5074438;28;20482;-47
2022/02/05 10:49:00;;;;;;;7.50;1.60;;;;;;;;;;5074269;28;20025;-48
2022/02/05 10:51:38;;;;;;;4.55;1.23;;;;;;;;;;5073618;28;20487;-50
2022/02/05 10:54:13;;;;;;;6.57;1.33;;;;;;;;;;5072524;28;20540;-46
2022/02/05 10:56:56;;;;;;;2.35;1.08;;;;;;;;;;5074475;28;20368;-47
2022/02/05 10:59:44;;;;;;;8.50;1.45;;;;;;;;;;5078053;28;20032;-47
2022/02/05 11:07:40;;;;;;;9.48;1.80;;;;;;;;;;5074178;28;20071;-47
2022/02/05 11:10:06;;;;;;;4.43;1.17;;;;;;;;;;5074053;28;20032;-49
2022/02/05 11:20:46;;;;;;;7.15;2.03;;;;;;;;;;5069778;28;20101;-47
2022/02/05 11:23:12;;;;;;;7.18;1.52;;;;;;;;;;5072693;28;20492;-47
2022/02/05 11:25:40;;;;;;;7.70;2.08;;;;;;;;;;5073930;28;20036;-46
2022/02/05 11:28:07;;;;;;;3.72;1.23;;;;;;;;;;5073851;28;20028;-47
2022/02/05 11:30:43;;;;;;;9.40;1.83;;;;;;;;;;5071002;28;20380;-47
2022/02/05 11:33:24;;;;;;;3.88;1.50;;;;;;;;;;5081679;28;20009;-46
2022/02/05 11:38:35;;;;;;;7.47;1.75;;;;;;;;;;5073186;28;20187;-47
2022/02/05 11:41:02;;;;;;;5.00;1.40;;;;;;;;;;5073270;28;20033;-48
2022/02/05 11:43:30;;;;;;;7.93;1.90;;;;;;;;;;5073514;28;20028;-47
2022/02/05 11:46:07;;;;;;;8.20;2.08;;;;;;;;;;5071890;28;20099;-47
2022/02/05 11:48:37;;;;;;;3.00;1.15;;;;;;;;;;5069198;28;20028;-48
2022/02/05 11:51:14;;;;;;;4.20;1.48;;;;;;;;;;5072731;28;20044;-47
2022/02/05 11:53:58;;;;;;;5.35;1.58;;;;;;;;;;5073414;28;20128;-48
2022/02/05 11:59:23;;;;;;;6.85;1.60;;;;;;;;;;5067971;28;20042;-47
2022/02/05 12:01:49;;;;;;;5.65;1.05;;;;;;;;;;5072108;28;20028;-47
2022/02/05 12:04:24;;;;;;;4.40;1.25;;;;;;;;;;5072615;28;20064;-47
2022/02/05 12:06:51;;;;;;;4.05;1.33;;;;;;;;;;5071848;28;20103;-47
2022/02/05 12:09:33;;;;;;;3.10;0.90;;;;;;;;;;5069961;28;20056;-48
2022/02/05 12:12:18;;;;;;;5.45;1.23;;;;;;;;;;5072546;28;20427;-47
2022/02/05 12:15:02;;;;;;;3.85;0.90;;;;;;;;;;5061010;28;20020;-47
2022/02/05 12:17:38;;;;;;;4.75;1.13;;;;;;;;;;5072255;28;20063;-48
2022/02/05 12:20:10;;;;;;;6.80;1.00;;;;;;;;;;5070662;28;20024;-47
2022/02/05 12:23:00;;;;;;;7.53;1.15;;;;;;;;;;5072327;28;20063;-47
2022/02/05 12:25:26;;;;;;;3.63;1.10;;;;;;;;;;5072414;28;20033;-46
2022/02/05 12:27:52;;;;;;;6.65;1.00;;;;;;;;;;5072656;28;20060;-47
2022/02/05 12:30:29;;;;;;;7.45;1.48;;;;;;;;;;5069903;28;20035;-47
2022/02/05 12:32:55;;;;;;;5.35;1.08;;;;;;;;;;5064029;28;20024;-49
2022/02/05 12:35:21;;;;;;;5.55;1.15;;;;;;;;;;5067123;28;20433;-46
2022/02/05 12:37:47;;;;;;;1.63;0.60;;;;;;;;;;5064506;28;20124;-47
2022/02/05 12:40:13;;;;;;;4.18;1.20;;;;;;;;;;5061707;28;20178;-47
2022/02/05 12:42:40;;;;;;;3.95;1.30;;;;;;;;;;5068157;28;20057;-48
2022/02/05 12:45:06;;;;;;;8.13;1.23;;;;;;;;;;5064486;28;20468;-49
2022/02/05 12:47:38;;;;;;;9.50;1.25;;;;;;;;;;5063431;28;20033;-47
2022/02/05 12:50:09;;;;;;;6.13;1.30;;;;;;;;;;5066158;28;20419;-47
2022/02/05 12:52:35;;;;;;;4.07;1.20;;;;;;;;;;5068957;28;20974;-46
2022/02/05 12:55:02;;;;;;;9.35;1.42;;;;;;;;;;5069482;28;20372;-47
2022/02/05 12:57:29;;;;;;;7.20;1.38;;;;;;;;;;5062209;28;20024;-46
2022/02/05 12:59:55;;;;;;;6.82;1.40;;;;;;;;;;5066036;28;20429;-46
2022/02/05 13:02:23;;;;;;;6.80;1.20;;;;;;;;;;5066333;28;20024;-47
2022/02/05 13:04:50;;;;;;;4.63;1.30;;;;;;;;;;5061424;28;20359;-47
2022/02/05 13:07:18;;;;;;;6.53;1.50;;;;;;;;;;5071148;28;20031;-46
2022/02/05 13:09:49;;;;;;;10.05;1.10;;;;;;;;;;5071082;28;20029;-48
2022/02/05 13:12:18;;;;;;;4.68;1.30;;;;;;;;;;5070242;28;20043;-46
2022/02/05 13:14:49;;;;;;;11.75;1.80;;;;;;;;;;5072055;28;20025;-47
2022/02/05 13:17:23;;;;;;;3.47;1.30;;;;;;;;;;5066694;28;20078;-48
2022/02/05 13:28:01;;;;;;;7.32;1.35;;;;;;;;;;5062699;28;20036;-47
2022/02/05 13:35:58;;;;;;;8.35;1.73;;;;;;;;;;5070994;28;20040;-47
2022/02/05 13:38:25;;;;;;;7.40;1.10;;;;;;;;;;5067493;28;20481;-46
2022/02/05 13:41:02;;;;;;;9.10;1.15;;;;;;;;;;5066790;28;20095;-46
2022/02/05 13:43:42;;;;;;;4.07;1.67;;;;;;;;;;5064704;28;20032;-49
2022/02/05 13:46:20;;;;;;;4.68;0.80;;;;;;;;;;5066096;28;20037;-46
2022/02/05 13:48:46;;;;;;;4.03;1.23;;;;;;;;;;5065860;28;20032;-47
2022/02/05 13:51:12;;;;;;;5.05;1.25;;;;;;;;;;5071269;28;20815;-46
2022/02/05 13:53:57;;;;;;;9.07;2.05;;;;;;;;;;5068328;28;20104;-47
2022/02/05 13:56:24;;;;;;;3.95;1.30;;;;;;;;;;5069485;28;20487;-47
2022/02/05 13:58:50;;;;;;;5.28;0.90;;;;;;;;;;5064202;28;20028;-50
2022/02/05 14:01:35;;;;;;;6.70;1.08;;;;;;;;;;5064514;28;20112;-46
2022/02/05 14:04:14;;;;;;;5.28;1.52;;;;;;;;;;5052552;28;20057;-47
2022/02/05 14:06:50;;;;;;;4.15;0.75;;;;;;;;;;5063832;28;20040;-47
2022/02/05 14:09:35;;;;;;;4.10;1.65;;;;;;;;;;5068736;28;20038;-47
2022/02/05 14:12:17;;;;;;;3.95;1.02;;;;;;;;;;5065384;28;20025;-47
2022/02/05 14:14:44;;;;;;;8.05;0.82;;;;;;;;;;5065468;28;20400;-46
2022/02/05 14:17:17;;;;;;;6.07;1.48;;;;;;;;;;5069275;28;20049;-47
2022/02/05 14:19:43;;;;;;;6.85;1.17;;;;;;;;;;5082844;28;20567;-47
2022/02/05 14:22:19;;;;;;;4.40;1.90;;;;;;;;;;5069121;28;20065;-46
2022/02/05 14:24:45;;;;;;;9.40;1.52;;;;;;;;;;5065299;28;20036;-47
2022/02/05 14:27:19;;;;;;;5.88;2.03;;;;;;;;;;5065781;28;20033;-48
2022/02/05 14:29:57;;;;;;;5.88;1.38;;;;;;;;;;5074144;28;20603;-47
2022/02/05 14:32:40;;;;;;;5.32;1.80;;;;;;;;;;5073161;28;20349;-48
2022/02/05 14:35:28;;;;;;;5.38;1.33;;;;;;;;;;5079665;28;20024;-47
2022/02/05 14:40:43;;;;;;;4.55;0.90;;;;;;;;;;5065831;28;20566;-46
2022/02/05 14:43:09;;;;;;;4.85;1.10;;;;;;;;;;5075252;28;20032;-48
2022/02/05 14:45:35;;;;;;;5.32;1.58;;;;;;;;;;5075787;28;20039;-49
2022/02/05 14:48:01;;;;;;;6.22;1.10;;;;;;;;;;5067461;28;20039;-48
2022/02/05 14:50:27;;;;;;;2.38;1.00;;;;;;;;;;5071389;28;20384;-48
2022/02/05 14:52:53;;;;;;;4.60;1.83;;;;;;;;;;5068047;28;20051;-47
2022/02/05 14:55:20;;;;;;;4.43;1.00;;;;;;;;;;5073097;28;20021;-47
2022/02/05 14:57:46;;;;;;;3.85;1.67;;;;;;;;;;5075691;28;20017;-47
2022/02/05 15:00:12;;;;;;;14.65;2.00;;;;;;;;;;5073054;28;20037;-47
2022/02/05 15:02:38;;;;;;;6.55;1.55;;;;;;;;;;5070794;28;20556;-46
2022/02/05 15:05:12;;;;;;;6.43;1.83;;;;;;;;;;5068820;28;20488;-47
2022/02/05 15:07:41;;;;;;;7.57;1.30;;;;;;;;;;5063606;28;20078;-48
2022/02/05 15:10:09;;;;;;;4.65;1.00;;;;;;;;;;5061108;28;20127;-48
2022/02/05 15:12:36;;;;;;;7.38;1.15;;;;;;;;;;5057767;28;20060;-46
2022/02/05 15:15:05;;;;;;;6.90;1.52;;;;;;;;;;5064398;28;20048;-47
2022/02/05 15:17:34;;;;;;;4.88;2.08;;;;;;;;;;5074492;28;20028;-47
2022/02/05 15:20:00;;;;;;;5.63;1.45;;;;;;;;;;5070711;28;20103;-47
2022/02/05 15:22:26;;;;;;;8.60;1.50;;;;;;;;;;5064188;28;20104;-46
2022/02/05 15:24:52;;;;;;;6.78;1.23;;;;;;;;;;5062618;28;20048;-46
2022/02/05 15:27:18;;;;;;;9.98;1.30;;;;;;;;;;5059493;28;20044;-47
2022/02/05 15:29:44;;;;;;;5.05;1.35;;;;;;;;;;5061414;28;20029;-47
2022/02/05 15:32:10;;;;;;;5.53;1.63;;;;;;;;;;5070220;28;20039;-46
2022/02/05 15:34:36;;;;;;;8.88;1.63;;;;;;;;;;5077689;28;20025;-46
2022/02/05 15:37:07;;;;;;;6.68;2.00;;;;;;;;;;5067862;28;20024;-46
2022/02/05 15:45:07;;;;;;;9.93;1.98;;;;;;;;;;5046517;28;20122;-47
2022/02/05 15:47:33;;;;;;;8.85;1.48;;;;;;;;;;5073470;28;20369;-46
2022/02/05 15:49:59;;;;;;;2.67;1.10;;;;;;;;;;5072227;28;20082;-47
2022/02/05 15:52:25;;;;;;;4.63;1.13;;;;;;;;;;5071989;28;20540;-48
2022/02/05 15:54:53;;;;;;;6.65;1.67;;;;;;;;;;5074258;28;20070;-46
2022/02/05 15:57:33;;;;;;;2.88;1.20;;;;;;;;;;5073848;28;20505;-47
2022/02/05 16:00:20;;;;;;;5.10;1.45;;;;;;;;;;5064143;28;20389;-47
2022/02/05 16:02:46;;;;;;;5.47;1.30;;;;;;;;;;5077405;28;20468;-47
2022/02/05 16:05:12;;;;;;;7.22;1.35;;;;;;;;;;5067369;28;20031;-46
2022/02/05 16:07:38;;;;;;;5.60;1.27;;;;;;;;;;5071831;28;20111;-47
2022/02/05 16:10:04;;;;;;;3.60;1.20;;;;;;;;;;5068037;28;20100;-46
2022/02/05 16:12:31;;;;;;;9.20;1.50;;;;;;;;;;5061557;28;20048;-48
2022/02/05 16:14:56;;;;;;;11.23;1.75;;;;;;;;;;5067967;28;20044;-46
2022/02/05 16:17:22;;;;;;;5.60;1.65;;;;;;;;;;5068540;28;20028;-52
2022/02/05 16:19:49;;;;;;;4.90;1.50;;;;;;;;;;5066294;28;20107;-46
2022/02/05 16:22:15;;;;;;;5.47;1.30;;;;;;;;;;5076747;28;20027;-47
2022/02/05 16:24:41;;;;;;;4.85;1.52;;;;;;;;;;5064855;28;20032;-47
2022/02/05 16:27:07;;;;;;;8.35;1.23;;;;;;;;;;5060821;28;20121;-48
2022/02/05 16:29:33;;;;;;;7.80;2.20;;;;;;;;;;5064689;28;20025;-48
2022/02/05 16:31:59;;;;;;;2.67;1.50;;;;;;;;;;5056968;28;20334;-47
2022/02/05 16:34:29;;;;;;;4.63;1.38;;;;;;;;;;5059323;28;20020;-48
2022/02/05 16:36:55;;;;;;;7.30;1.70;;;;;;;;;;5068424;28;20021;-48
2022/02/05 16:39:26;;;;;;;4.70;1.77;;;;;;;;;;5064038;28;20583;-47
2022/02/05 16:41:52;;;;;;;7.35;1.90;;;;;;;;;;5057099;28;20031;-50
2022/02/05 16:44:18;;;;;;;10.90;2.47;;;;;;;;;;5068212;28;20021;-47
2022/02/05 16:46:50;;;;;;;6.32;1.40;;;;;;;;;;5069084;28;20035;-48
2022/02/05 16:49:18;;;;;;;5.95;1.80;;;;;;;;;;5068092;28;20028;-46
2022/02/05 16:51:49;;;;;;;3.75;1.80;;;;;;;;;;5061226;28;20079;-47
2022/02/05 16:54:15;;;;;;;8.68;2.35;;;;;;;;;;5064535;28;20025;-46
2022/02/05 16:56:41;;;;;;;7.47;1.90;;;;;;;;;;5071306;28;20032;-46
2022/02/05 16:59:07;;;;;;;2.75;1.70;;;;;;;;;;5072300;28;20448;-47
2022/02/05 17:01:33;;;;;;;7.82;2.20;;;;;;;;;;5064198;28;20104;-46
2022/02/05 17:03:59;;;;;;;3.38;1.50;;;;;;;;;;5071479;28;20721;-46
2022/02/05 17:06:27;;;;;;;8.32;1.73;;;;;;;;;;5065449;28;20360;-48
2022/02/05 17:08:55;;;;;;;7.18;2.10;;;;;;;;;;5061835;28;20017;-47
2022/02/05 17:11:21;;;;;;;6.70;2.03;;;;;;;;;;5062872;28;20033;-46
2022/02/05 17:13:47;;;;;;;7.00;1.98;;;;;;;;;;5076745;28;20036;-46
2022/02/05 17:16:17;;;;;;;4.25;1.90;;;;;;;;;;5070867;28;20031;-46
2022/02/05 17:18:43;;;;;;;4.10;1.60;;;;;;;;;;5061954;28;20461;-48
2022/02/05 17:21:09;;;;;;;4.55;1.85;;;;;;;;;;5065485;28;20036;-47